Time;durP1;ratioP1;P1;durP2;ratioP2;P2;SDS_P1;SDS_P2;PMS_P1;PMS_P2;Temp;Humidity;BMP_temperature;BMP_pressure;BME280_temperature;BME280_humidity;BME280_pressure;Samples;Min_cycle;Max_cycle;Signal;HPM_P1;HPM_P2
2024/02/03 00:00:48;;;;;;;16.00;14.30;;;;;;;11.10;100.00;102611.38;5239418;28;20033;-76
2024/02/03 00:03:20;;;;;;;16.65;14.95;;;;;;;11.11;100.00;102622.69;5235968;28;20075;-75
2024/02/03 00:05:52;;;;;;;16.10;14.50;;;;;;;11.00;100.00;102606.75;5237538;28;20048;-77
2024/02/03 00:08:24;;;;;;;16.52;14.98;;;;;;;11.07;100.00;102610.69;5237058;28;20808;-74
2024/02/03 00:10:56;;;;;;;17.92;16.23;;;;;;;11.07;100.00;102603.66;5239822;28;20040;-77
2024/02/03 00:13:28;;;;;;;18.08;16.25;;;;;;;11.06;100.00;102596.75;5234608;28;20033;-75
2024/02/03 00:16:01;;;;;;;17.52;15.93;;;;;;;11.09;100.00;102596.53;5236331;28;20049;-75
2024/02/03 00:18:34;;;;;;;17.42;15.73;;;;;;;11.06;100.00;102593.25;5231645;28;20482;-77
2024/02/03 00:21:06;;;;;;;18.85;17.02;;;;;;;11.10;100.00;102598.25;5240290;28;20036;-74
2024/02/03 00:23:38;;;;;;;19.52;17.67;;;;;;;11.12;100.00;102593.75;5248034;28;20033;-78
2024/02/03 00:26:10;;;;;;;20.67;18.77;;;;;;;11.10;100.00;102586.88;5237596;28;20037;-74
2024/02/03 00:28:42;;;;;;;19.85;17.98;;;;;;;11.11;100.00;102599.94;5238988;28;20044;-74
2024/02/03 00:31:15;;;;;;;22.30;20.20;;;;;;;11.14;100.00;102596.28;5240679;28;20033;-74
2024/02/03 00:33:47;;;;;;;22.33;20.13;;;;;;;11.17;100.00;102606.56;5237279;28;20037;-75
2024/02/03 00:36:23;;;;;;;23.00;20.83;;;;;;;11.23;100.00;102598.34;5240036;28;20033;-75
2024/02/03 00:38:55;;;;;;;22.58;20.50;;;;;;;11.14;100.00;102589.25;5234121;28;20037;-75
2024/02/03 00:41:27;;;;;;;23.23;20.58;;;;;;;11.14;100.00;102601.53;5238788;28;20039;-74
2024/02/03 00:43:59;;;;;;;22.98;20.77;;;;;;;11.12;100.00;102592.91;5234565;28;20060;-75
2024/02/03 00:46:30;;;;;;;23.65;21.45;;;;;;;11.15;100.00;102587.47;5235023;28;20033;-74
2024/02/03 00:49:02;;;;;;;23.80;21.60;;;;;;;11.14;100.00;102589.25;5237614;28;20032;-74
2024/02/03 00:51:34;;;;;;;23.20;20.98;;;;;;;11.15;100.00;102588.31;5234592;28;20037;-75
2024/02/03 00:54:06;;;;;;;23.75;21.55;;;;;;;11.19;100.00;102594.22;5235406;28;20045;-76
2024/02/03 00:56:38;;;;;;;24.20;21.90;;;;;;;11.19;100.00;102594.22;5236220;28;20104;-74
2024/02/03 00:59:11;;;;;;;21.08;19.13;;;;;;;11.24;100.00;102589.53;5237953;28;20037;-75
2024/02/03 01:01:43;;;;;;;21.73;19.63;;;;;;;11.20;100.00;102575.75;5236727;28;20029;-75
2024/02/03 01:04:15;;;;;;;21.75;19.55;;;;;;;11.21;100.00;102579.22;5238804;28;20478;-78
2024/02/03 01:06:49;;;;;;;21.30;19.30;;;;;;;11.19;100.00;102586.34;5236260;28;20453;-75
2024/02/03 01:09:21;;;;;;;19.05;17.15;;;;;;;11.20;100.00;102574.91;5238685;28;20033;-76
2024/02/03 01:11:54;;;;;;;20.10;18.13;;;;;;;11.23;100.00;102582.63;5235867;28;20627;-75
2024/02/03 01:14:26;;;;;;;18.73;16.67;;;;;;;11.16;100.00;102555.06;5233969;28;20044;-74
2024/02/03 01:16:58;;;;;;;18.70;16.85;;;;;;;11.29;100.00;102581.38;5232224;28;20032;-74
2024/02/03 01:19:30;;;;;;;17.80;16.02;;;;;;;11.28;100.00;102574.47;5237356;28;20376;-75
2024/02/03 01:22:03;;;;;;;16.20;14.77;;;;;;;11.32;100.00;102587.28;5237762;28;20375;-75
2024/02/03 01:24:35;;;;;;;15.68;14.07;;;;;;;11.31;100.00;102579.53;5239597;28;20033;-75
2024/02/03 01:27:06;;;;;;;15.02;13.68;;;;;;;11.32;100.00;102575.97;5234062;28;20084;-77
2024/02/03 01:29:38;;;;;;;15.07;13.57;;;;;;;11.35;100.00;102573.16;5238007;28;20034;-74
2024/02/03 01:32:10;;;;;;;15.65;14.15;;;;;;;11.33;100.00;102589.00;5244464;28;20497;-75
2024/02/03 01:34:42;;;;;;;14.38;13.07;;;;;;;11.34;100.00;102574.09;5241142;28;20444;-74
2024/02/03 01:37:14;;;;;;;15.23;13.73;;;;;;;11.39;100.00;102575.50;5237483;28;20045;-77
2024/02/03 01:39:46;;;;;;;13.50;12.18;;;;;;;11.35;100.00;102574.00;5238327;28;20037;-74
2024/02/03 01:42:18;;;;;;;13.38;12.18;;;;;;;11.34;100.00;102577.56;5239445;28;20052;-75
2024/02/03 01:44:50;;;;;;;14.60;13.30;;;;;;;11.33;100.00;102570.63;5242484;28;20036;-74
2024/02/03 01:47:23;;;;;;;14.35;13.05;;;;;;;11.37;100.00;102569.50;5240291;28;20033;-75
2024/02/03 01:49:55;;;;;;;13.63;12.32;;;;;;;11.37;100.00;102561.63;5236992;28;20398;-76
2024/02/03 01:52:27;;;;;;;13.52;12.15;;;;;;;11.39;100.00;102564.16;5242377;28;20037;-76
2024/02/03 01:54:59;;;;;;;12.77;11.50;;;;;;;11.39;100.00;102565.00;5237384;28;20077;-76
2024/02/03 01:57:32;;;;;;;12.93;11.68;;;;;;;11.45;100.00;102562.00;5233767;28;20611;-77
2024/02/03 02:00:05;;;;;;;;;;;;;;;12.01;100.00;102561.22;5236952;28;20037;-75
2024/02/03 02:02:37;;;;;;;13.33;12.03;;;;;;;11.52;100.00;102562.50;5236975;28;19916;-76
2024/02/03 02:05:09;;;;;;;13.73;12.05;;;;;;;11.45;100.00;102555.94;5238006;28;20064;-74
2024/02/03 02:07:43;;;;;;;12.77;11.45;;;;;;;11.44;100.00;102560.34;5236483;28;20033;-75
2024/02/03 02:10:16;;;;;;;;;;;;;;;11.96;100.00;102552.78;5237253;28;20034;-75
2024/02/03 02:12:48;;;;;;;13.05;11.85;;;;;;;11.51;100.00;102555.53;5232893;28;20393;-75
2024/02/03 02:15:20;;;;;;;12.50;11.40;;;;;;;11.43;100.00;102550.75;5235438;28;20033;-75
2024/02/03 02:17:59;;;;;;;12.23;11.13;;;;;;;11.57;100.00;102556.94;5235714;28;20029;-74
2024/02/03 02:20:31;;;;;;;13.30;11.63;;;;;;;11.65;100.00;102566.03;5238618;28;20059;-74
2024/02/03 02:23:03;;;;;;;13.48;12.23;;;;;;;11.65;100.00;102559.94;5237450;28;20033;-76
2024/02/03 02:25:35;;;;;;;12.70;11.45;;;;;;;11.61;100.00;102558.44;5236751;28;20037;-74
2024/02/03 02:28:07;;;;;;;12.13;10.98;;;;;;;11.67;100.00;102556.28;5240501;28;20037;-74
2024/02/03 02:30:40;;;;;;;12.50;11.40;;;;;;;11.66;100.00;102559.84;5240108;28;20036;-75
2024/02/03 02:33:12;;;;;;;12.90;11.48;;;;;;;11.61;100.00;102554.03;5235895;28;20033;-74
2024/02/03 02:35:46;;;;;;;13.17;11.97;;;;;;;11.72;100.00;102560.41;5237073;28;20032;-74
2024/02/03 02:38:18;;;;;;;12.63;11.43;;;;;;;11.68;100.00;102547.47;5238332;28;20029;-74
2024/02/03 02:40:50;;;;;;;11.55;10.55;;;;;;;11.72;100.00;102544.66;5237863;28;20044;-75
2024/02/03 02:43:22;;;;;;;12.88;11.68;;;;;;;11.68;100.00;102541.38;5231526;28;20044;-74
2024/02/03 02:45:55;;;;;;;12.98;11.77;;;;;;;11.65;100.00;102539.78;5230568;28;20032;-75
2024/02/03 02:48:27;;;;;;;12.70;11.40;;;;;;;11.74;100.00;102538.34;5232178;28;20036;-74
2024/02/03 02:50:59;;;;;;;13.07;11.70;;;;;;;11.71;100.00;102546.44;5229483;28;20033;-76
2024/02/03 02:53:31;;;;;;;13.03;11.80;;;;;;;11.74;100.00;102542.75;5231448;28;20037;-76
2024/02/03 02:56:03;;;;;;;13.05;11.85;;;;;;;11.71;100.00;102538.56;5238040;28;20290;-74
2024/02/03 02:58:35;;;;;;;12.83;11.47;;;;;;;11.72;100.00;102540.25;5234710;28;20733;-75
2024/02/03 03:01:07;;;;;;;13.05;11.50;;;;;;;11.69;100.00;102535.19;5234010;28;20033;-74
2024/02/03 03:03:39;;;;;;;12.40;11.20;;;;;;;11.69;100.00;102533.41;5239329;28;20033;-75
2024/02/03 03:06:11;;;;;;;12.68;11.45;;;;;;;11.66;100.00;102530.94;5244442;28;20045;-74
2024/02/03 03:08:43;;;;;;;12.98;11.50;;;;;;;11.58;100.00;102521.88;5238848;28;20029;-74
2024/02/03 03:11:15;;;;;;;13.32;11.07;;;;;;;11.68;100.00;102518.59;5238780;28;20029;-75
2024/02/03 03:13:47;;;;;;;13.30;11.55;;;;;;;11.69;100.00;102530.78;5241226;28;20037;-75
2024/02/03 03:16:19;;;;;;;12.15;10.95;;;;;;;11.69;100.00;102533.41;5238714;28;20029;-74
2024/02/03 03:18:51;;;;;;;12.80;10.75;;;;;;;11.68;100.00;102526.47;5241850;28;20039;-74
2024/02/03 03:21:23;;;;;;;13.18;10.88;;;;;;;11.51;100.00;102524.03;5240717;28;20422;-76
2024/02/03 03:23:54;;;;;;;12.35;10.65;;;;;;;11.45;100.00;102514.78;5244564;28;20032;-75
2024/02/03 03:26:27;;;;;;;13.80;10.65;;;;;;;11.43;100.00;102513.16;5244268;28;20038;-76
2024/02/03 03:28:58;;;;;;;11.93;10.68;;;;;;;11.46;100.00;102523.47;5237985;28;20033;-75
2024/02/03 03:31:30;;;;;;;12.15;10.70;;;;;;;11.43;100.00;102524.50;5240586;28;20560;-74
2024/02/03 03:34:02;;;;;;;11.85;10.57;;;;;;;11.38;100.00;102523.97;5239907;28;20557;-75
2024/02/03 03:36:34;;;;;;;12.73;10.65;;;;;;;11.32;100.00;102515.59;5239113;28;20037;-75
2024/02/03 03:39:08;;;;;;;16.48;11.02;;;;;;;11.36;100.00;102515.31;5243532;28;20033;-76
2024/02/03 03:41:40;;;;;;;12.23;11.00;;;;;;;11.38;100.00;102523.97;5239802;28;20039;-76
2024/02/03 03:44:12;;;;;;;13.70;10.68;;;;;;;11.39;100.00;102528.25;5235703;28;20029;-76
2024/02/03 03:46:44;;;;;;;11.80;10.60;;;;;;;11.36;100.00;102528.44;5239335;28;20486;-76
2024/02/03 03:49:16;;;;;;;12.70;11.00;;;;;;;11.41;100.00;102517.69;5241712;28;20036;-74
2024/02/03 03:51:48;;;;;;;11.85;10.75;;;;;;;11.38;100.00;102517.88;5244837;28;20032;-77
2024/02/03 03:54:20;;;;;;;12.20;10.75;;;;;;;11.36;100.00;102520.56;5241262;28;20037;-74
2024/02/03 03:56:52;;;;;;;11.55;10.45;;;;;;;11.37;100.00;102517.03;5238763;28;20407;-76
2024/02/03 03:59:24;;;;;;;12.52;11.32;;;;;;;11.36;100.00;102517.09;5243247;28;20040;-76
2024/02/03 04:01:56;;;;;;;12.13;10.82;;;;;;;11.37;100.00;102506.53;5239098;28;20034;-75
2024/02/03 04:04:28;;;;;;;11.85;10.60;;;;;;;11.41;100.00;102497.53;5242332;28;20387;-76
2024/02/03 04:07:00;;;;;;;13.55;12.13;;;;;;;11.31;100.00;102496.41;5240852;28;20064;-76
2024/02/03 04:09:32;;;;;;;12.02;10.82;;;;;;;11.36;100.00;102509.22;5244854;28;20035;-75
2024/02/03 04:12:04;;;;;;;12.85;11.07;;;;;;;11.32;100.00;102499.88;5245654;28;20031;-74
2024/02/03 04:14:36;;;;;;;11.63;10.50;;;;;;;11.29;100.00;102492.19;5237317;28;20037;-78
2024/02/03 04:17:10;;;;;;;13.02;11.45;;;;;;;11.36;100.00;102499.56;5239173;28;20033;-74
2024/02/03 04:19:43;;;;;;;13.52;11.35;;;;;;;11.25;100.00;102504.66;5237523;28;20041;-75
2024/02/03 04:22:15;;;;;;;12.90;11.70;;;;;;;11.20;100.00;102504.94;5243783;28;20033;-75
2024/02/03 04:24:47;;;;;;;11.98;10.27;;;;;;;11.27;100.00;102513.28;5241325;28;20042;-74
2024/02/03 04:27:19;;;;;;;13.30;10.05;;;;;;;11.28;100.00;102512.31;5241623;28;20033;-75
2024/02/03 04:29:51;;;;;;;12.07;9.50;;;;;;;11.27;100.00;102513.28;5241913;28;20033;-73
2024/02/03 04:32:23;;;;;;;10.35;9.25;;;;;;;11.23;100.00;102509.16;5237936;28;20029;-74
2024/02/03 04:34:55;;;;;;;10.57;9.43;;;;;;;11.12;100.00;102498.47;5237766;28;20862;-76
2024/02/03 04:37:27;;;;;;;11.05;8.45;;;;;;;11.21;100.00;102513.63;5240600;28;20457;-76
2024/02/03 04:40:00;;;;;;;11.13;8.30;;;;;;;11.32;100.00;102510.38;5238024;28;20041;-76
2024/02/03 04:42:31;;;;;;;12.23;8.40;;;;;;;11.37;100.00;102509.16;5241670;28;20029;-73
2024/02/03 04:45:04;;;;;;;10.13;9.00;;;;;;;11.29;100.00;102507.91;5239461;28;20025;-76
2024/02/03 04:47:37;;;;;;;11.23;8.43;;;;;;;11.34;100.00;102501.47;5240288;28;20049;-76
2024/02/03 04:50:09;;;;;;;9.35;8.18;;;;;;;11.27;100.00;102500.16;5241175;28;20029;-76
2024/02/03 04:52:41;;;;;;;9.65;7.93;;;;;;;11.31;100.00;102492.94;5238584;28;20052;-76
2024/02/03 04:55:13;;;;;;;10.25;7.93;;;;;;;11.31;100.00;102499.03;5239588;28;20039;-75
2024/02/03 04:57:45;;;;;;;8.80;7.95;;;;;;;11.26;100.00;102490.59;5239661;28;20506;-74
2024/02/03 05:00:17;;;;;;;9.68;7.53;;;;;;;11.31;100.00;102501.66;5237784;28;20026;-74
2024/02/03 05:02:49;;;;;;;8.98;7.90;;;;;;;11.31;100.00;102504.28;5240290;28;20033;-76
2024/02/03 05:05:21;;;;;;;10.98;7.60;;;;;;;11.36;100.00;102511.84;5240132;28;20055;-75
2024/02/03 05:07:53;;;;;;;8.48;7.65;;;;;;;11.41;100.00;102509.81;5239751;28;21044;-74
2024/02/03 05:10:24;;;;;;;9.45;7.53;;;;;;;11.32;100.00;102495.47;5239901;28;20033;-76
2024/02/03 05:12:57;;;;;;;8.85;7.28;;;;;;;11.34;100.00;102500.63;5239785;28;20041;-76
2024/02/03 05:15:29;;;;;;;9.73;8.00;;;;;;;11.34;100.00;102503.25;5239069;28;20072;-75
2024/02/03 05:18:01;;;;;;;10.60;8.23;;;;;;;11.34;100.00;102498.00;5236518;28;20498;-74
2024/02/03 05:20:33;;;;;;;9.88;8.05;;;;;;;11.35;100.00;102490.03;5237486;28;20521;-75
2024/02/03 05:23:05;;;;;;;8.45;7.25;;;;;;;11.36;100.00;102494.31;5241741;28;20038;-75
2024/02/03 05:25:37;;;;;;;8.52;7.30;;;;;;;11.39;100.00;102496.78;5240169;28;20067;-76
2024/02/03 05:28:09;;;;;;;9.48;7.53;;;;;;;11.38;100.00;102495.09;5239423;28;20029;-76
2024/02/03 05:30:41;;;;;;;9.70;8.23;;;;;;;11.31;100.00;102485.91;5237981;28;20266;-75
2024/02/03 05:33:14;;;;;;;10.68;8.18;;;;;;;11.35;100.00;102492.66;5237675;28;20029;-75
2024/02/03 05:35:46;;;;;;;10.30;8.40;;;;;;;11.43;100.00;102489.56;5235809;28;20495;-74
2024/02/03 05:38:18;;;;;;;9.00;7.90;;;;;;;11.42;100.00;102490.50;5238703;28;20036;-75
2024/02/03 05:40:50;;;;;;;12.68;9.30;;;;;;;11.41;100.00;102481.78;5238167;28;20025;-75
2024/02/03 05:43:22;;;;;;;11.93;9.20;;;;;;;11.42;100.00;102483.47;5237769;28;20037;-76
2024/02/03 05:45:53;;;;;;;10.70;9.13;;;;;;;11.36;100.00;102454.97;5237443;28;20152;-75
2024/02/03 05:48:25;;;;;;;13.73;9.20;;;;;;;11.43;100.00;102477.28;5242767;28;20047;-74
2024/02/03 05:50:57;;;;;;;13.88;8.82;;;;;;;11.40;100.00;102472.25;5237589;28;20017;-76
2024/02/03 05:53:35;;;;;;;9.70;8.70;;;;;;;11.32;100.00;102469.22;5240312;28;20406;-74
2024/02/03 05:56:07;;;;;;;11.82;9.60;;;;;;;11.41;100.00;102471.28;5238595;28;20029;-74
2024/02/03 05:58:40;;;;;;;10.98;8.75;;;;;;;11.41;100.00;102468.66;5235872;28;20025;-76
2024/02/03 06:01:12;;;;;;;11.90;9.48;;;;;;;11.44;100.00;102471.09;5235669;28;20391;-76
2024/02/03 06:03:44;;;;;;;9.48;7.88;;;;;;;11.43;100.00;102466.78;5243115;28;20033;-75
2024/02/03 06:06:16;;;;;;;11.20;8.88;;;;;;;11.39;100.00;102459.19;5235489;28;20038;-76
2024/02/03 06:08:47;;;;;;;11.82;9.40;;;;;;;11.46;100.00;102471.00;5238691;28;20021;-76
2024/02/03 06:11:19;;;;;;;12.63;8.85;;;;;;;11.49;100.00;102475.22;5238633;28;20405;-75
2024/02/03 06:13:51;;;;;;;13.52;8.80;;;;;;;11.47;100.00;102467.41;5238368;28;20044;-76
2024/02/03 06:16:23;;;;;;;10.45;9.30;;;;;;;11.54;100.00;102478.38;5238276;28;20037;-73
2024/02/03 06:18:55;;;;;;;12.05;9.43;;;;;;;11.46;100.00;102476.25;5239374;28;20045;-75
2024/02/03 06:21:27;;;;;;;10.10;8.68;;;;;;;11.41;100.00;102479.16;5235911;28;20096;-74
2024/02/03 06:23:59;;;;;;;10.50;9.32;;;;;;;11.31;100.00;102467.53;5235577;28;20478;-76
2024/02/03 06:26:31;;;;;;;11.15;9.57;;;;;;;11.38;100.00;102473.25;5235583;28;20051;-73
2024/02/03 06:29:05;;;;;;;11.23;9.15;;;;;;;11.40;100.00;102477.47;5237823;28;20024;-76
2024/02/03 06:31:37;;;;;;;13.80;10.10;;;;;;;11.40;100.00;102474.84;5239627;28;20036;-76
2024/02/03 06:34:09;;;;;;;14.27;10.57;;;;;;;11.44;100.00;102476.34;5242315;28;20044;-75
2024/02/03 06:36:41;;;;;;;14.40;11.20;;;;;;;11.43;100.00;102486.94;5239113;28;20041;-76
2024/02/03 06:39:13;;;;;;;13.60;10.77;;;;;;;11.45;100.00;102475.41;5232602;28;20029;-76
2024/02/03 06:41:46;;;;;;;13.77;11.43;;;;;;;11.48;100.00;102482.25;5234665;28;20471;-76
2024/02/03 06:44:17;;;;;;;11.35;10.02;;;;;;;11.45;100.00;102483.28;5234559;28;20497;-75
2024/02/03 06:46:49;;;;;;;13.13;11.63;;;;;;;11.48;100.00;102476.13;5240398;28;20029;-76
2024/02/03 06:49:21;;;;;;;12.50;11.25;;;;;;;11.51;100.00;102479.41;5236837;28;20037;-75
2024/02/03 06:51:54;;;;;;;14.55;11.63;;;;;;;11.49;100.00;102496.22;5236118;28;20025;-75
2024/02/03 06:54:25;;;;;;;13.88;12.48;;;;;;;11.48;100.00;102484.00;5240821;28;20482;-76
2024/02/03 06:56:58;;;;;;;14.10;12.48;;;;;;;11.45;100.00;102472.78;5232912;28;20052;-76
2024/02/03 06:59:30;;;;;;;13.30;11.90;;;;;;;11.51;100.00;102491.69;5239181;28;20026;-74
2024/02/03 07:02:02;;;;;;;14.20;12.75;;;;;;;11.52;100.00;102494.25;5240025;28;20055;-75
2024/02/03 07:04:34;;;;;;;12.75;11.45;;;;;;;11.55;100.00;102501.91;5233466;28;20031;-73
2024/02/03 07:07:06;;;;;;;13.82;12.40;;;;;;;11.60;100.00;102501.63;5238015;28;20398;-75
2024/02/03 07:09:38;;;;;;;12.50;11.30;;;;;;;11.53;100.00;102498.56;5236365;28;20083;-75
2024/02/03 07:12:10;;;;;;;12.38;11.18;;;;;;;11.52;100.00;102506.53;5236299;28;20028;-74
2024/02/03 07:14:42;;;;;;;12.60;11.15;;;;;;;11.53;100.00;102509.03;5237512;28;20035;-76
2024/02/03 07:17:14;;;;;;;13.55;10.85;;;;;;;11.55;100.00;102511.56;5233387;28;20033;-75
2024/02/03 07:19:46;;;;;;;11.73;10.13;;;;;;;11.52;100.00;102511.78;5235686;28;20036;-76
2024/02/03 07:22:18;;;;;;;12.35;10.30;;;;;;;11.44;100.00;102494.72;5236212;28;20043;-75
2024/02/03 07:24:49;;;;;;;11.52;10.32;;;;;;;11.54;100.00;102504.63;5231987;28;20422;-76
2024/02/03 07:27:21;;;;;;;11.15;9.32;;;;;;;11.54;100.00;102502.00;5233053;28;20029;-76
2024/02/03 07:29:53;;;;;;;12.73;9.63;;;;;;;11.53;100.00;102505.59;5235148;28;20285;-76
2024/02/03 07:32:25;;;;;;;13.32;9.63;;;;;;;11.49;100.00;102497.06;5239176;28;20029;-75
2024/02/03 07:34:57;;;;;;;10.27;9.18;;;;;;;11.49;100.00;102502.31;5239797;28;20037;-75
2024/02/03 07:37:29;;;;;;;12.57;9.45;;;;;;;11.41;100.00;102487.03;5233644;28;20536;-75
2024/02/03 07:40:01;;;;;;;11.25;8.57;;;;;;;11.47;100.00;102503.31;5235545;28;20036;-75
2024/02/03 07:42:33;;;;;;;12.00;8.90;;;;;;;11.49;100.00;102504.94;5235676;28;20033;-75
2024/02/03 07:45:05;;;;;;;12.75;8.70;;;;;;;11.49;100.00;102507.56;5237454;28;20033;-74
2024/02/03 07:47:37;;;;;;;9.98;7.70;;;;;;;11.41;100.00;102494.91;5238094;28;20048;-75
2024/02/03 07:50:09;;;;;;;10.15;8.05;;;;;;;11.50;100.00;102508.41;5238480;28;20503;-74
2024/02/03 07:52:41;;;;;;;8.93;7.57;;;;;;;11.48;100.00;102515.50;5235593;28;20714;-76
2024/02/03 07:55:13;;;;;;;10.43;8.18;;;;;;;11.51;100.00;102517.94;5242305;28;20036;-76
2024/02/03 07:57:47;;;;;;;9.75;8.10;;;;;;;11.56;100.00;102524.63;5235435;28;20037;-74
2024/02/03 08:00:20;;;;;;;10.68;7.63;;;;;;;11.52;100.00;102519.66;5236988;28;20033;-76
2024/02/03 08:02:51;;;;;;;8.68;7.10;;;;;;;11.49;100.00;102511.97;5234201;28;20033;-76
2024/02/03 08:05:23;;;;;;;9.00;7.60;;;;;;;11.47;100.00;102509.41;5235575;28;20049;-75
2024/02/03 08:07:55;;;;;;;9.50;7.88;;;;;;;11.36;100.00;102496.94;5237811;28;20501;-73
2024/02/03 08:10:28;;;;;;;9.23;8.10;;;;;;;11.45;100.00;102522.66;5238979;28;20047;-76
2024/02/03 08:13:00;;;;;;;12.93;8.80;;;;;;;11.48;100.00;102526.00;5244293;28;20068;-75
2024/02/03 08:15:32;;;;;;;9.25;8.25;;;;;;;11.39;100.00;102509.06;5241388;28;20037;-75
2024/02/03 08:18:04;;;;;;;11.38;8.57;;;;;;;11.49;100.00;102532.97;5233956;28;20043;-76
2024/02/03 08:20:36;;;;;;;13.35;7.95;;;;;;;11.44;100.00;102528.84;5239173;28;20475;-76
2024/02/03 08:23:08;;;;;;;9.77;7.90;;;;;;;11.45;100.00;102529.69;5236572;28;20037;-75
2024/02/03 08:25:40;;;;;;;10.45;7.60;;;;;;;11.48;100.00;102526.00;5238339;28;20029;-74
2024/02/03 08:28:12;;;;;;;10.18;8.15;;;;;;;11.42;100.00;102524.63;5232384;28;20029;-74
2024/02/03 08:30:44;;;;;;;14.27;8.50;;;;;;;11.50;100.00;102529.38;5240202;28;20048;-76
2024/02/03 08:33:16;;;;;;;10.73;8.68;;;;;;;11.45;100.00;102538.41;5238301;28;20483;-76
2024/02/03 08:35:48;;;;;;;11.73;8.98;;;;;;;11.48;100.00;102536.50;5243334;28;20033;-76
2024/02/03 08:38:20;;;;;;;10.40;8.30;;;;;;;11.49;100.00;102539.06;5233839;28;20034;-76
2024/02/03 08:40:51;;;;;;;10.68;8.93;;;;;;;11.48;100.00;102531.25;5243070;28;20044;-75
2024/02/03 08:43:23;;;;;;;9.27;8.48;;;;;;;11.49;100.00;102533.81;5236661;28;20025;-75
2024/02/03 08:45:55;;;;;;;10.20;8.60;;;;;;;11.47;100.00;102533.03;5240213;28;20034;-73
2024/02/03 08:48:27;;;;;;;9.93;8.93;;;;;;;11.53;100.00;102539.72;5237988;28;20056;-75
2024/02/03 08:50:59;;;;;;;10.02;8.85;;;;;;;11.55;100.00;102546.53;5237477;28;20039;-76
2024/02/03 08:53:32;;;;;;;9.00;8.05;;;;;;;11.57;100.00;102551.69;5244912;28;20044;-76
2024/02/03 08:56:07;;;;;;;9.68;8.38;;;;;;;11.61;100.00;102546.16;5239560;28;20029;-76
2024/02/03 08:58:39;;;;;;;10.55;8.73;;;;;;;11.56;100.00;102548.25;5237820;28;20267;-76
2024/02/03 09:01:12;;;;;;;11.05;8.57;;;;;;;11.55;100.00;102546.53;5241505;28;20075;-74
2024/02/03 09:03:44;;;;;;;13.48;8.82;;;;;;;11.54;100.00;102547.47;5240158;28;20033;-76
2024/02/03 09:06:17;;;;;;;12.25;8.75;;;;;;;11.55;100.00;102549.16;5234994;28;20060;-76
2024/02/03 09:08:48;;;;;;;10.02;8.48;;;;;;;11.62;100.00;102560.97;5241050;28;20048;-76
2024/02/03 09:11:21;;;;;;;9.18;8.23;;;;;;;11.53;100.00;102555.44;5241654;28;20033;-75
2024/02/03 09:13:53;;;;;;;9.40;8.43;;;;;;;11.53;100.00;102548.41;5238997;28;20056;-76
2024/02/03 09:16:25;;;;;;;9.52;7.95;;;;;;;11.53;100.00;102551.03;5237042;28;20037;-76
2024/02/03 09:18:57;;;;;;;9.80;8.23;;;;;;;11.51;100.00;102555.53;5236940;28;20032;-75
2024/02/03 09:21:29;;;;;;;9.23;8.35;;;;;;;11.53;100.00;102558.06;5236785;28;20427;-76
2024/02/03 09:24:01;;;;;;;9.18;8.18;;;;;;;11.57;100.00;102557.78;5233499;28;20041;-75
2024/02/03 09:26:39;;;;;;;10.30;8.40;;;;;;;11.69;100.00;102556.19;5240293;28;20048;-76
2024/02/03 09:29:11;;;;;;;10.73;7.75;;;;;;;11.58;100.00;102551.59;5236657;28;20037;-76
2024/02/03 09:31:43;;;;;;;8.80;7.60;;;;;;;11.64;100.00;102564.34;5233127;28;20029;-75
2024/02/03 09:34:15;;;;;;;8.00;7.20;;;;;;;11.56;100.00;102548.25;5234096;28;20044;-76
2024/02/03 09:36:47;;;;;;;8.98;6.78;;;;;;;11.60;100.00;102554.16;5236800;28;20033;-76
2024/02/03 09:39:18;;;;;;;8.55;6.35;;;;;;;11.58;100.00;102541.09;5240362;28;20529;-76
2024/02/03 09:41:54;;;;;;;8.40;5.82;;;;;;;11.55;100.00;102541.28;5233060;28;20048;-76
2024/02/03 09:44:26;;;;;;;7.53;6.40;;;;;;;11.56;100.00;102543.00;5232912;28;20033;-74
2024/02/03 09:46:58;;;;;;;6.65;5.95;;;;;;;11.62;100.00;102552.25;5238035;28;20037;-75
2024/02/03 09:49:30;;;;;;;8.75;6.20;;;;;;;11.67;100.00;102551.03;5238542;28;20091;-76
2024/02/03 09:52:03;;;;;;;6.47;5.22;;;;;;;11.62;100.00;102560.13;5227554;28;20029;-76
2024/02/03 09:54:35;;;;;;;8.30;5.53;;;;;;;11.63;100.00;102557.44;5235364;28;20394;-76
2024/02/03 09:57:07;;;;;;;6.03;5.00;;;;;;;11.62;100.00;102552.25;5235696;28;20041;-76
2024/02/03 09:59:40;;;;;;;8.38;5.15;;;;;;;11.66;100.00;102556.38;5239257;28;20044;-76
2024/02/03 10:02:12;;;;;;;6.53;4.90;;;;;;;11.75;100.00;102554.97;5237029;28;20486;-76
2024/02/03 10:04:45;;;;;;;5.93;4.78;;;;;;;11.75;100.00;102553.19;5230626;28;20394;-75
2024/02/03 10:07:18;;;;;;;;;;;;;;;12.32;100.00;102552.25;5235858;28;20033;-75
2024/02/03 10:09:51;;;;;;;5.65;4.95;;;;;;;11.80;100.00;102551.09;5238948;28;19928;-76
2024/02/03 10:12:23;;;;;;;6.10;4.22;;;;;;;11.84;100.00;102544.75;5238526;28;20041;-76
2024/02/03 10:15:08;;;;;;;4.90;4.40;;;;;;;11.91;100.00;102553.94;5240627;28;20295;-76
2024/02/03 10:17:39;;;;;;;5.47;4.60;;;;;;;11.84;100.00;102542.13;5237422;28;20033;-74
2024/02/03 10:20:11;;;;;;;6.75;4.80;;;;;;;11.85;100.00;102543.81;5232620;28;20364;-77
2024/02/03 10:22:45;;;;;;;4.00;3.58;;;;;;;11.79;100.00;102538.94;5231185;28;20028;-75
2024/02/03 10:25:24;;;;;;;6.68;4.10;;;;;;;11.85;100.00;102538.56;5234973;28;20033;-76
2024/02/03 10:28:04;;;;;;;4.82;4.00;;;;;;;11.90;100.00;102547.00;5235526;28;20036;-75
2024/02/03 10:30:37;;;;;;;4.97;4.00;;;;;;;11.87;100.00;102544.56;5235291;28;20383;-78
2024/02/03 10:33:09;;;;;;;4.07;3.67;;;;;;;11.92;100.00;102554.78;5240236;28;20026;-75
2024/02/03 10:35:41;;;;;;;4.47;3.63;;;;;;;11.87;100.00;102543.72;5237550;28;20033;-75
2024/02/03 10:38:13;;;;;;;6.75;4.43;;;;;;;11.93;100.00;102545.94;5231697;28;20029;-74
2024/02/03 10:40:46;;;;;;;4.10;3.67;;;;;;;11.95;100.00;102549.34;5238364;28;20034;-75
2024/02/03 10:43:20;;;;;;;4.35;3.80;;;;;;;12.04;100.00;102551.38;5238343;28;20033;-77
2024/02/03 10:46:00;;;;;;;5.05;4.10;;;;;;;12.10;100.00;102539.63;5236164;28;20052;-78
2024/02/03 10:48:42;;;;;;;5.20;4.00;;;;;;;12.23;100.00;102542.31;5236278;28;20028;-75
2024/02/03 10:51:25;;;;;;;5.90;4.80;;;;;;;12.18;100.00;102542.59;5236031;28;20507;-78
2024/02/03 10:54:01;;;;;;;6.05;4.78;;;;;;;12.06;100.00;102538.97;5236091;28;20045;-77
2024/02/03 10:56:36;;;;;;;5.38;4.88;;;;;;;12.07;100.00;102542.44;5239703;28;20029;-75
2024/02/03 10:59:08;;;;;;;6.20;5.15;;;;;;;12.01;100.00;102545.47;5239592;28;20039;-75
2024/02/03 11:01:41;;;;;;;5.75;5.20;;;;;;;12.00;100.00;102542.00;5236789;28;20044;-77
2024/02/03 11:04:14;;;;;;;6.43;5.38;;;;;;;12.05;100.00;102537.31;5234308;28;20405;-75
2024/02/03 11:06:49;;;;;;;7.30;5.05;;;;;;;12.05;100.00;102546.97;5233611;28;20060;-79
2024/02/03 11:09:22;;;;;;;6.05;4.75;;;;;;;12.05;100.00;102536.47;5237560;28;20384;-79
2024/02/03 11:11:55;;;;;;;8.27;5.10;;;;;;;12.10;100.00;102535.22;5234526;28;20032;-75
2024/02/03 11:14:31;;;;;;;5.67;5.10;;;;;;;12.08;100.00;102525.75;5232064;28;20037;-76
2024/02/03 11:17:05;;;;;;;7.28;6.40;;;;;;;12.05;100.00;102532.06;5236155;28;20296;-75
2024/02/03 11:19:38;;;;;;;7.35;5.32;;;;;;;12.04;100.00;102532.97;5236532;28;20038;-76
2024/02/03 11:22:09;;;;;;;5.78;5.15;;;;;;;12.05;100.00;102520.72;5237462;28;20383;-75
2024/02/03 11:24:43;;;;;;;6.60;5.90;;;;;;;12.01;100.00;102508.69;5232503;28;20036;-77
2024/02/03 11:27:15;;;;;;;;;;;;;;;12.68;100.00;102533.19;5237957;28;20364;-75
2024/02/03 11:29:46;;;;;;;6.47;5.88;;;;;;;12.09;100.00;102530.06;5238007;28;19920;-75
2024/02/03 11:32:23;;;;;;;7.72;6.03;;;;;;;12.26;100.00;102521.09;5239586;28;20025;-76